createdAt,value
2023-03-03T00:00:57.501Z,58.70
2023-03-03T00:02:57.870Z,54.80
2023-03-03T00:04:58.112Z,59.40
2023-03-03T00:06:58.442Z,59.10
2023-03-03T00:08:58.737Z,58.20
2023-03-03T00:10:59.038Z,57.20
2023-03-03T00:12:59.339Z,58.40
2023-03-03T00:14:59.740Z,56.40
2023-03-03T00:17:00.156Z,58.10
2023-03-03T00:19:00.433Z,59.50
2023-03-03T00:21:00.746Z,61.90
2023-03-03T00:23:01.077Z,61.70
2023-03-03T00:25:01.398Z,59.30
2023-03-03T00:27:01.674Z,58.40
2023-03-03T00:29:02.036Z,57.30
2023-03-03T00:31:02.362Z,58.50
2023-03-03T00:33:02.614Z,59.40
2023-03-03T00:35:03.075Z,55.90
2023-03-03T00:37:03.336Z,58.40
2023-03-03T00:39:03.642Z,55.70
2023-03-03T00:41:03.952Z,55.20
2023-03-03T00:43:04.292Z,51.70
2023-03-03T00:45:04.649Z,56.70
2023-03-03T00:47:05.038Z,58.70
2023-03-03T00:49:05.304Z,53.90
2023-03-03T00:51:05.662Z,49.20
2023-03-03T00:53:05.993Z,49.00
2023-03-03T00:55:06.796Z,48.40
2023-03-03T00:57:07.091Z,48.90
2023-03-03T00:59:07.406Z,44.70
2023-03-03T01:01:07.773Z,49.60
2023-03-03T01:03:08.129Z,50.30
2023-03-03T01:05:08.447Z,51.50
2023-03-03T01:07:08.720Z,49.60
2023-03-03T01:09:09.009Z,49.60
2023-03-03T01:11:09.317Z,50.10
2023-03-03T01:13:09.626Z,56.30
2023-03-03T01:15:09.967Z,52.40
2023-03-03T01:17:10.352Z,49.00
2023-03-03T01:19:10.629Z,51.90
2023-03-03T01:21:10.897Z,48.90
2023-03-03T01:23:11.250Z,49.60
2023-03-03T01:25:11.556Z,53.60
2023-03-03T01:27:11.828Z,54.30
2023-03-03T01:29:12.322Z,55.50
2023-03-03T01:31:12.644Z,54.90
2023-03-03T01:33:12.994Z,53.80
2023-03-03T01:35:13.283Z,52.30
2023-03-03T01:37:13.601Z,52.40
2023-03-03T01:39:13.952Z,51.60
2023-03-03T01:41:14.237Z,55.40
2023-03-03T01:43:14.635Z,48.10
2023-03-03T01:45:14.922Z,50.10
2023-03-03T01:47:15.172Z,49.10
2023-03-03T01:49:16.236Z,53.10
2023-03-03T01:51:16.481Z,50.10
2023-03-03T01:53:16.784Z,50.20
2023-03-03T01:55:17.086Z,47.40
2023-03-03T01:57:17.511Z,46.00
2023-03-03T01:59:17.839Z,44.80
2023-03-03T02:01:18.325Z,44.00
2023-03-03T02:03:18.606Z,47.70
2023-03-03T02:05:18.926Z,47.50
2023-03-03T02:07:19.247Z,44.30
2023-03-03T02:09:19.567Z,45.60
2023-03-03T02:11:19.813Z,47.00
2023-03-03T02:13:20.193Z,45.50
2023-03-03T02:15:20.466Z,43.20
2023-03-03T02:17:20.772Z,40.40
2023-03-03T02:19:21.095Z,44.30
2023-03-03T02:21:21.374Z,43.00
2023-03-03T02:23:21.695Z,46.80
2023-03-03T02:25:22.224Z,44.60
2023-03-03T02:27:27.397Z,44.40
2023-03-03T02:29:27.674Z,43.50
2023-03-03T02:31:28.077Z,42.00
2023-03-03T02:33:28.337Z,45.90
2023-03-03T02:35:28.710Z,50.90
2023-03-03T02:37:29.151Z,47.00
2023-03-03T02:39:29.434Z,48.00
2023-03-03T02:41:29.769Z,46.60
2023-03-03T02:43:30.070Z,47.30
2023-03-03T02:45:30.563Z,48.00
2023-03-03T02:47:31.246Z,45.80
2023-03-03T02:49:31.576Z,46.90
2023-03-03T02:51:32.720Z,45.70
2023-03-03T02:53:33.680Z,43.80
2023-03-03T02:55:33.986Z,48.40
2023-03-03T02:57:34.324Z,46.00
2023-03-03T02:59:34.573Z,47.60
2023-03-03T03:01:34.934Z,44.20
2023-03-03T03:03:35.212Z,49.60
2023-03-03T03:05:35.540Z,46.00
2023-03-03T03:07:35.832Z,42.50
2023-03-03T03:09:36.166Z,45.60
2023-03-03T03:11:36.613Z,46.50
2023-03-03T03:13:36.867Z,46.70
2023-03-03T03:15:37.232Z,46.90
2023-03-03T03:17:37.512Z,48.50
2023-03-03T03:19:37.812Z,48.50
2023-03-03T03:21:38.370Z,49.30
2023-03-03T03:23:38.887Z,50.10
2023-03-03T03:25:39.176Z,51.10
2023-03-03T03:27:39.445Z,51.80
2023-03-03T03:29:39.810Z,49.00
2023-03-03T03:31:40.075Z,45.60
2023-03-03T03:33:40.449Z,50.70
2023-03-03T03:35:40.732Z,51.00
2023-03-03T03:37:41.055Z,52.00
2023-03-03T03:39:41.385Z,50.30
2023-03-03T03:41:41.639Z,45.40
2023-03-03T03:43:41.999Z,49.80
2023-03-03T03:45:42.402Z,50.50
2023-03-03T03:47:42.677Z,45.80
2023-03-03T03:49:42.990Z,44.00
2023-03-03T03:51:43.382Z,47.80
2023-03-03T03:53:43.667Z,44.30
2023-03-03T03:55:44.004Z,43.60
2023-03-03T03:57:49.141Z,44.00
2023-03-03T03:59:49.449Z,42.40
2023-03-03T04:01:49.805Z,46.60
2023-03-03T04:03:50.067Z,42.20
2023-03-03T04:05:51.206Z,43.00
2023-03-03T04:07:51.557Z,41.80
2023-03-03T04:09:52.641Z,38.10
2023-03-03T04:11:52.999Z,38.90
2023-03-03T04:13:58.141Z,39.60
2023-03-03T04:15:58.536Z,37.20
2023-03-03T04:17:59.055Z,36.50
2023-03-03T04:19:59.311Z,33.50
2023-03-03T04:21:59.637Z,32.80
2023-03-03T04:23:59.938Z,35.40
2023-03-03T04:26:00.281Z,29.90
2023-03-03T04:28:00.579Z,29.70
2023-03-03T04:30:00.835Z,26.20
2023-03-03T04:32:01.159Z,28.30
2023-03-03T04:34:01.439Z,26.20
2023-03-03T04:36:01.744Z,25.70
2023-03-03T04:38:02.115Z,25.70
2023-03-03T04:40:02.370Z,27.10
2023-03-03T04:42:02.651Z,27.70
2023-03-03T04:44:02.944Z,24.70
2023-03-03T04:46:03.273Z,22.50
2023-03-03T04:48:03.599Z,23.60
2023-03-03T04:50:03.874Z,25.50
2023-03-03T04:52:04.190Z,32.30
2023-03-03T04:54:04.509Z,29.60
2023-03-03T04:56:04.789Z,29.60
2023-03-03T04:58:05.205Z,27.20
2023-03-03T05:00:05.516Z,23.50
2023-03-03T05:02:05.838Z,25.50
2023-03-03T05:04:06.649Z,24.90
2023-03-03T05:06:06.962Z,24.60
2023-03-03T05:08:07.210Z,24.20
2023-03-03T05:10:07.592Z,26.50
2023-03-03T05:12:07.909Z,24.80
2023-03-03T05:14:08.211Z,25.00
2023-03-03T05:16:08.607Z,25.40
2023-03-03T05:18:08.889Z,24.60
2023-03-03T05:20:10.147Z,25.20
2023-03-03T05:22:10.656Z,22.70
2023-03-03T05:24:15.905Z,22.00
2023-03-03T05:26:16.269Z,25.20
2023-03-03T05:28:16.618Z,292.30
2023-03-03T05:30:16.867Z,122.40
2023-03-03T05:32:17.248Z,44.10
2023-03-03T05:34:17.522Z,30.20
2023-03-03T05:36:17.969Z,27.40
2023-03-03T05:38:18.350Z,25.30
2023-03-03T05:40:18.743Z,28.40
2023-03-03T05:42:19.014Z,25.40
2023-03-03T05:44:20.722Z,30.70
2023-03-03T05:46:21.167Z,23.80
2023-03-03T05:48:21.426Z,23.60
2023-03-03T05:50:21.912Z,26.30
2023-03-03T05:52:22.160Z,25.50
2023-03-03T05:54:22.447Z,33.10
2023-03-03T05:56:22.768Z,24.40
2023-03-03T05:58:23.080Z,27.20
2023-03-03T06:00:23.337Z,26.50
2023-03-03T06:02:23.630Z,28.40
2023-03-03T06:04:23.970Z,26.90
2023-03-03T06:06:24.246Z,25.40
2023-03-03T06:08:24.606Z,28.80
2023-03-03T06:10:24.859Z,25.50
2023-03-03T06:12:25.155Z,25.40
2023-03-03T06:14:27.155Z,29.40
2023-03-03T06:16:27.645Z,27.10
2023-03-03T06:18:27.937Z,26.00
2023-03-03T06:20:28.244Z,28.40
2023-03-03T06:22:28.485Z,26.70
2023-03-03T06:24:28.804Z,32.00
2023-03-03T06:26:32.239Z,26.20
2023-03-03T06:28:32.535Z,29.10
2023-03-03T06:30:32.901Z,29.20
2023-03-03T06:32:33.192Z,25.90
2023-03-03T06:34:33.883Z,27.40
2023-03-03T06:36:34.176Z,27.20
2023-03-03T06:38:34.468Z,32.00
2023-03-03T06:40:34.841Z,25.50
2023-03-03T06:42:39.971Z,28.40
2023-03-03T06:44:40.336Z,26.80
2023-03-03T06:46:40.593Z,27.20
2023-03-03T06:48:40.925Z,25.30
2023-03-03T06:50:41.216Z,26.10
2023-03-03T06:52:41.493Z,29.00
2023-03-03T06:54:41.793Z,30.30
2023-03-03T06:56:42.088Z,30.10
2023-03-03T06:58:42.408Z,29.00
2023-03-03T07:00:42.709Z,29.20
2023-03-03T07:02:43.042Z,27.90
2023-03-03T07:04:43.303Z,28.40
2023-03-03T07:06:44.165Z,27.40
2023-03-03T07:08:44.463Z,27.30
2023-03-03T07:10:44.726Z,26.50
2023-03-03T07:12:45.049Z,28.00
2023-03-03T07:14:45.333Z,27.50
2023-03-03T07:16:45.685Z,28.90
2023-03-03T07:18:45.969Z,32.10
2023-03-03T07:20:46.259Z,32.10
2023-03-03T07:22:46.605Z,35.40
2023-03-03T07:24:46.870Z,38.30
2023-03-03T07:26:47.174Z,33.90
2023-03-03T07:28:47.466Z,34.50
2023-03-03T07:30:48.717Z,33.30
2023-03-03T07:32:48.982Z,33.30
2023-03-03T07:34:49.335Z,33.00
2023-03-03T07:36:49.606Z,35.30
2023-03-03T07:38:49.899Z,32.20
2023-03-03T07:40:50.218Z,36.80
2023-03-03T07:42:50.520Z,33.90
2023-03-03T07:44:50.835Z,33.20
2023-03-03T07:46:51.126Z,34.60
2023-03-03T07:48:51.437Z,36.20
2023-03-03T07:50:51.731Z,46.40
2023-03-03T07:52:52.046Z,39.50
2023-03-03T07:54:52.400Z,34.40
2023-03-03T07:56:52.697Z,33.10
2023-03-03T07:58:53.760Z,31.90
2023-03-03T08:00:54.721Z,31.40
2023-03-03T08:02:55.009Z,32.10
2023-03-03T08:04:55.583Z,32.10
2023-03-03T08:06:55.881Z,33.60
2023-03-03T08:08:56.154Z,35.00
2023-03-03T08:10:56.492Z,34.30
2023-03-03T08:12:56.768Z,34.20
2023-03-03T08:14:57.030Z,33.50
2023-03-03T08:16:59.208Z,35.30
2023-03-03T08:19:00.723Z,36.70
2023-03-03T08:21:01.033Z,37.90
2023-03-03T08:23:01.333Z,42.50
2023-03-03T08:25:01.644Z,39.80
2023-03-03T08:27:01.920Z,41.20
2023-03-03T08:29:02.199Z,38.10
2023-03-03T08:31:16.377Z,36.10
2023-03-03T08:33:07.691Z,36.00
2023-03-03T08:35:08.005Z,36.30
2023-03-03T08:37:08.666Z,38.40
2023-03-03T08:39:09.042Z,39.40
2023-03-03T08:41:09.332Z,37.20
2023-03-03T08:43:09.700Z,36.00
2023-03-03T08:45:09.953Z,35.70
2023-03-03T08:47:10.278Z,33.90
2023-03-03T08:49:10.554Z,33.00
2023-03-03T08:51:10.935Z,30.60
2023-03-03T08:53:11.280Z,34.90
2023-03-03T08:55:11.550Z,30.80
2023-03-03T08:57:11.863Z,31.90
2023-03-03T08:59:12.678Z,30.90
2023-03-03T09:01:12.991Z,33.10
2023-03-03T09:03:13.269Z,31.30
2023-03-03T09:05:13.586Z,31.10
2023-03-03T09:07:13.915Z,37.00
2023-03-03T09:09:14.233Z,36.10
2023-03-03T09:11:15.184Z,37.00
2023-03-03T09:13:15.460Z,35.30
2023-03-03T09:15:15.779Z,35.60
2023-03-03T09:17:16.072Z,36.50
2023-03-03T09:19:16.380Z,35.30
2023-03-03T09:21:16.690Z,35.50
2023-03-03T09:23:16.947Z,37.00
2023-03-03T09:25:17.281Z,39.10
2023-03-03T09:27:17.583Z,36.20
2023-03-03T09:29:17.848Z,36.20
2023-03-03T09:31:18.211Z,35.90
2023-03-03T09:33:18.474Z,38.60
2023-03-03T09:35:18.849Z,37.60
2023-03-03T09:37:19.120Z,39.20
2023-03-03T09:39:19.466Z,36.80
2023-03-03T09:41:19.804Z,35.40
2023-03-03T09:43:20.090Z,39.30
2023-03-03T09:45:20.371Z,38.20
2023-03-03T09:47:22.241Z,34.90
2023-03-03T09:49:23.803Z,34.20
2023-03-03T09:51:25.522Z,35.50
2023-03-03T09:53:25.850Z,37.30
2023-03-03T09:55:26.111Z,36.80
2023-03-03T09:57:26.421Z,34.00
2023-03-03T09:59:26.715Z,35.10
2023-03-03T10:01:27.019Z,36.40
2023-03-03T10:03:27.382Z,37.60
2023-03-03T10:05:27.709Z,36.40
2023-03-03T10:07:27.995Z,38.10
2023-03-03T10:09:28.571Z,36.80
2023-03-03T10:11:28.860Z,36.00
2023-03-03T10:13:29.118Z,36.70
2023-03-03T10:15:29.443Z,38.90
2023-03-03T10:17:29.766Z,35.60
2023-03-03T10:19:30.078Z,37.10
2023-03-03T10:21:30.358Z,39.70
2023-03-03T10:23:30.751Z,37.70
2023-03-03T10:25:31.004Z,38.80
2023-03-03T10:27:31.317Z,38.90
2023-03-03T10:29:31.611Z,37.80
2023-03-03T10:31:32.005Z,41.30
2023-03-03T10:33:32.367Z,40.60
2023-03-03T10:35:32.735Z,38.80
2023-03-03T10:37:32.968Z,38.90
2023-03-03T10:39:33.241Z,40.70
2023-03-03T10:41:33.570Z,37.50
2023-03-03T10:43:33.842Z,41.30
2023-03-03T10:45:34.176Z,38.70
2023-03-03T10:47:34.457Z,42.20
2023-03-03T10:49:34.804Z,38.00
2023-03-03T10:51:35.123Z,39.20
2023-03-03T10:53:35.411Z,39.50
2023-03-03T10:55:39.027Z,38.90
2023-03-03T10:57:39.697Z,39.00
2023-03-03T10:59:40.003Z,39.20
2023-03-03T11:01:40.302Z,38.20
2023-03-03T11:03:40.644Z,38.30
2023-03-03T11:05:40.971Z,38.80
2023-03-03T11:07:41.265Z,37.50
2023-03-03T11:09:41.506Z,36.90
2023-03-03T11:11:41.823Z,38.80
2023-03-03T11:13:42.102Z,42.70
2023-03-03T11:15:42.403Z,38.30
2023-03-03T11:17:42.690Z,40.80
2023-03-03T11:19:42.986Z,38.90
2023-03-03T11:21:43.297Z,37.30
2023-03-03T11:23:43.586Z,38.90
2023-03-03T11:25:43.839Z,37.20
2023-03-03T11:27:44.160Z,37.50
2023-03-03T11:29:44.446Z,38.40
2023-03-03T11:31:44.732Z,37.70
2023-03-03T11:33:45.082Z,38.70
2023-03-03T11:35:45.403Z,37.60
2023-03-03T11:37:45.709Z,36.10
2023-03-03T11:39:45.980Z,38.20
2023-03-03T11:41:46.296Z,36.40
2023-03-03T11:43:46.576Z,38.20
2023-03-03T11:45:46.862Z,36.60
2023-03-03T11:47:47.139Z,37.90
2023-03-03T11:49:47.454Z,40.50
2023-03-03T11:51:47.751Z,35.20
2023-03-03T11:53:48.064Z,36.10
2023-03-03T11:55:48.361Z,34.20
2023-03-03T11:57:48.671Z,35.30
2023-03-03T11:59:48.986Z,33.80
2023-03-03T12:01:49.420Z,36.80
2023-03-03T12:03:49.715Z,35.60
2023-03-03T12:05:50.051Z,38.60
2023-03-03T12:07:50.340Z,34.50
2023-03-03T12:09:50.638Z,37.30
2023-03-03T12:11:53.511Z,35.20
2023-03-03T12:13:54.639Z,35.40
2023-03-03T12:15:55.019Z,36.00
2023-03-03T12:17:55.314Z,35.30
2023-03-03T12:19:55.662Z,35.30
2023-03-03T12:21:55.969Z,34.80
2023-03-03T12:23:56.264Z,31.90
2023-03-03T12:25:56.549Z,36.10
2023-03-03T12:27:56.871Z,33.50
2023-03-03T12:29:57.125Z,37.10
2023-03-03T12:31:57.468Z,37.30
2023-03-03T12:33:57.727Z,34.70
2023-03-03T12:35:58.104Z,32.70
2023-03-03T12:37:58.335Z,33.80
2023-03-03T12:39:58.636Z,35.80
2023-03-03T12:41:58.978Z,33.20
2023-03-03T12:43:59.269Z,32.10
2023-03-03T12:45:59.553Z,34.10
2023-03-03T12:47:59.851Z,36.20
2023-03-03T12:50:06.749Z,31.20
2023-03-03T12:52:05.330Z,32.40
2023-03-03T12:54:05.645Z,34.30
2023-03-03T12:56:05.957Z,32.50
2023-03-03T12:58:06.231Z,33.80
2023-03-03T13:00:06.552Z,35.80
2023-03-03T13:02:06.821Z,32.70
2023-03-03T13:04:07.378Z,32.70
2023-03-03T13:06:07.737Z,32.20
2023-03-03T13:08:08.285Z,31.30
2023-03-03T13:10:08.800Z,32.50
2023-03-03T13:12:09.138Z,34.00
2023-03-03T13:14:09.401Z,32.80
2023-03-03T13:16:10.082Z,31.90
2023-03-03T13:18:10.431Z,33.10
2023-03-03T13:20:10.732Z,34.70
2023-03-03T13:22:11.007Z,31.30
2023-03-03T13:24:11.315Z,35.20
2023-03-03T13:26:11.627Z,34.80
2023-03-03T13:28:11.884Z,31.40
2023-03-03T13:30:12.197Z,34.00
2023-03-03T13:32:12.589Z,31.70
2023-03-03T13:34:13.087Z,31.00
2023-03-03T13:36:56.301Z,33.70
2023-03-03T13:38:56.614Z,33.00
2023-03-03T13:40:56.922Z,29.30
2023-03-03T13:42:57.605Z,34.80
2023-03-03T13:44:57.899Z,34.50
2023-03-03T13:46:58.222Z,30.50
2023-03-03T13:48:58.569Z,30.70
2023-03-03T13:50:58.828Z,32.60
2023-03-03T13:52:59.265Z,34.10
2023-03-03T13:54:59.589Z,31.10
2023-03-03T13:57:00.040Z,32.40
2023-03-03T13:59:00.351Z,31.80
2023-03-03T14:01:00.741Z,30.60
2023-03-03T14:03:05.881Z,31.60
2023-03-03T14:05:06.235Z,34.60
2023-03-03T14:07:11.435Z,30.70
2023-03-03T14:09:11.812Z,30.50
2023-03-03T14:11:12.101Z,31.00
2023-03-03T14:13:12.384Z,32.00
2023-03-03T14:15:12.674Z,32.30
2023-03-03T14:17:13.006Z,31.20
2023-03-03T14:19:13.302Z,30.20
2023-03-03T14:21:13.619Z,30.80
2023-03-03T14:23:13.954Z,30.70
2023-03-03T14:25:14.343Z,29.00
2023-03-03T14:27:14.728Z,30.40
2023-03-03T14:29:14.986Z,31.40
2023-03-03T14:31:20.203Z,30.80
2023-03-03T14:33:20.566Z,27.90
2023-03-03T14:35:20.887Z,28.90
2023-03-03T14:37:21.192Z,30.30
2023-03-03T14:39:21.506Z,28.80
2023-03-03T14:41:21.886Z,33.00
2023-03-03T14:43:22.353Z,29.30
2023-03-03T14:45:33.791Z,33.30
2023-03-03T14:47:27.866Z,32.50
2023-03-03T14:49:28.179Z,29.90
2023-03-03T14:51:28.489Z,26.90
2023-03-03T14:53:28.796Z,29.70
2023-03-03T14:55:29.075Z,27.80
2023-03-03T14:57:29.524Z,27.80
2023-03-03T14:59:29.852Z,27.80
2023-03-03T15:01:30.239Z,29.10
2023-03-03T15:03:30.539Z,28.90
2023-03-03T15:05:30.891Z,28.30
2023-03-03T15:07:31.174Z,29.30
2023-03-03T15:09:31.474Z,26.50
2023-03-03T15:11:31.759Z,24.90
2023-03-03T15:13:33.111Z,25.80
2023-03-03T15:15:33.428Z,27.00
2023-03-03T15:17:33.755Z,25.90
2023-03-03T15:19:34.047Z,27.20
2023-03-03T15:21:34.338Z,24.70
2023-03-03T15:23:34.661Z,25.20
2023-03-03T15:25:43.270Z,25.50
2023-03-03T15:27:40.173Z,26.40
2023-03-03T15:29:40.565Z,26.80
2023-03-03T15:31:40.884Z,25.20
2023-03-03T15:33:41.251Z,24.00
2023-03-03T15:35:41.564Z,25.20
2023-03-03T15:37:41.882Z,25.80
2023-03-03T15:39:43.023Z,25.60
2023-03-03T15:41:43.428Z,23.80
2023-03-03T15:43:45.323Z,26.10
2023-03-03T15:45:45.633Z,27.60
2023-03-03T15:47:45.922Z,27.40
2023-03-03T15:49:46.238Z,28.40
2023-03-03T15:52:31.327Z,27.60
2023-03-03T15:54:31.608Z,24.20
2023-03-03T15:56:31.920Z,22.40
2023-03-03T15:58:32.203Z,24.10
2023-03-03T16:00:32.558Z,24.90
2023-03-03T16:02:32.917Z,21.70
2023-03-03T16:04:33.246Z,21.30
2023-03-03T16:06:33.495Z,21.80
2023-03-03T16:08:33.840Z,21.60
2023-03-03T16:10:34.094Z,22.50
2023-03-03T16:12:34.400Z,23.70
2023-03-03T16:14:34.752Z,23.60
2023-03-03T16:16:35.082Z,23.10
2023-03-03T16:19:16.920Z,18.90
2023-03-03T16:21:17.220Z,21.10
2023-03-03T16:23:17.512Z,35.80
2023-03-03T16:25:17.819Z,23.00
2023-03-03T17:46:43.622Z,33.00
2023-03-03T17:48:43.894Z,36.20
2023-03-03T17:50:44.182Z,32.20
2023-03-03T17:52:44.493Z,30.80
2023-03-03T17:54:44.817Z,31.70
2023-03-03T17:56:45.084Z,30.50
2023-03-03T17:58:45.488Z,29.80
2023-03-03T18:00:45.769Z,29.80
2023-03-03T18:02:46.135Z,28.90
2023-03-03T18:04:46.399Z,29.20
2023-03-03T18:06:46.696Z,29.00
2023-03-03T18:08:48.542Z,32.50
2023-03-03T18:10:48.854Z,34.20
2023-03-03T18:12:49.115Z,31.60
2023-03-03T18:14:49.402Z,29.30
2023-03-03T18:16:49.747Z,31.80
2023-03-03T18:18:50.037Z,30.90
2023-03-03T18:20:50.328Z,29.00
2023-03-03T18:22:50.603Z,31.00
2023-03-03T18:24:50.940Z,29.80
2023-03-03T18:26:51.206Z,26.70
2023-03-03T18:28:51.526Z,21.80
2023-03-03T18:30:51.838Z,24.90
2023-03-03T18:32:52.106Z,20.70
2023-03-03T18:34:52.437Z,19.70
2023-03-03T18:36:52.738Z,21.40
2023-03-03T18:38:53.009Z,19.50
2023-03-03T18:40:53.343Z,20.90
2023-03-03T18:42:53.609Z,23.10
2023-03-03T18:44:53.988Z,18.40
2023-03-03T18:46:54.264Z,18.50
2023-03-03T18:48:55.551Z,18.50
2023-03-03T18:50:55.875Z,17.80
2023-03-03T18:52:56.161Z,18.20
2023-03-03T18:54:56.442Z,17.10
2023-03-03T18:56:57.083Z,18.70
2023-03-03T18:58:57.387Z,19.80
2023-03-03T19:00:57.651Z,17.50
2023-03-03T19:02:57.969Z,17.50
2023-03-03T19:04:59.078Z,20.30
2023-03-03T19:06:59.377Z,18.40
2023-03-03T19:08:59.676Z,20.40
2023-03-03T19:11:00.043Z,18.30
2023-03-03T19:13:00.374Z,17.20
2023-03-03T19:15:00.667Z,18.00
2023-03-03T19:17:00.990Z,20.30
2023-03-03T19:19:01.278Z,18.50
2023-03-03T19:21:01.556Z,18.70
2023-03-03T19:23:01.902Z,20.20
2023-03-03T19:25:02.183Z,19.10
2023-03-03T19:27:02.474Z,18.90
2023-03-03T19:29:02.810Z,22.00
2023-03-03T19:31:03.156Z,30.60
2023-03-03T19:33:08.317Z,24.00
2023-03-03T19:35:08.632Z,23.10
2023-03-03T19:37:08.882Z,24.40
2023-03-03T19:39:09.250Z,21.70
2023-03-03T19:41:09.559Z,24.80
2023-03-03T19:43:09.915Z,25.00
2023-03-03T19:45:10.350Z,24.50
2023-03-03T19:47:10.644Z,25.70
2023-03-03T19:49:10.920Z,26.80
2023-03-03T19:51:11.270Z,24.80
2023-03-03T19:53:11.611Z,26.90
2023-03-03T19:55:11.908Z,27.00
2023-03-03T19:57:12.173Z,24.80
2023-03-03T19:59:12.449Z,26.20
2023-03-03T20:01:12.837Z,25.10
2023-03-03T20:03:13.116Z,27.10
2023-03-03T20:05:13.456Z,26.30
2023-03-03T20:07:13.777Z,26.30
2023-03-03T20:09:14.150Z,24.80
2023-03-03T20:11:14.452Z,27.80
2023-03-03T20:13:14.740Z,24.90
2023-03-03T20:15:15.090Z,29.50
2023-03-03T20:17:15.345Z,27.50
2023-03-03T20:19:15.651Z,27.10
2023-03-03T20:21:15.960Z,26.20
2023-03-03T20:23:16.242Z,25.60
2023-03-03T20:25:16.528Z,25.10
2023-03-03T20:27:16.861Z,24.20
2023-03-03T20:29:17.145Z,24.90
2023-03-03T20:31:17.512Z,24.60
2023-03-03T20:33:17.770Z,22.00
2023-03-03T20:35:18.125Z,25.90
2023-03-03T20:37:18.450Z,24.60
2023-03-03T20:39:18.730Z,21.80
2023-03-03T20:41:19.033Z,20.60
2023-03-03T20:43:19.385Z,20.00
2023-03-03T20:45:19.655Z,19.40
2023-03-03T20:47:19.955Z,22.40
2023-03-03T20:49:20.318Z,17.60
2023-03-03T20:51:20.627Z,19.10
2023-03-03T20:53:20.982Z,20.00
2023-03-03T20:55:21.266Z,19.40
2023-03-03T20:57:21.539Z,17.60
2023-03-03T20:59:21.864Z,19.80
2023-03-03T21:01:22.213Z,18.40
2023-03-03T21:03:22.585Z,18.00
2023-03-03T21:05:22.862Z,17.60
2023-03-03T21:07:23.190Z,17.60
2023-03-03T21:09:23.497Z,18.70
2023-03-03T21:11:23.766Z,17.00
2023-03-03T21:13:24.080Z,20.10
2023-03-03T21:15:25.132Z,18.10
2023-03-03T21:17:25.593Z,16.50
2023-03-03T21:19:26.184Z,18.60
2023-03-03T21:21:26.446Z,18.40
2023-03-03T21:23:26.781Z,18.40
2023-03-03T21:25:27.066Z,17.60
2023-03-03T21:27:27.366Z,19.50
2023-03-03T21:29:27.685Z,15.40
2023-03-03T21:31:27.968Z,18.80
2023-03-03T21:33:28.216Z,16.10
2023-03-03T21:35:28.577Z,18.10
2023-03-03T21:37:28.820Z,18.60
2023-03-03T21:39:29.161Z,18.80
2023-03-03T21:41:29.430Z,20.80
2023-03-03T21:43:29.689Z,17.60
2023-03-03T21:45:30.009Z,20.00
2023-03-03T21:47:30.307Z,18.20
2023-03-03T21:49:30.566Z,18.70
2023-03-03T21:51:30.887Z,18.90
2023-03-03T21:53:31.172Z,18.20
2023-03-03T21:55:31.505Z,19.80
2023-03-03T21:57:32.240Z,17.90
2023-03-03T21:59:32.672Z,17.90
2023-03-03T22:01:33.068Z,19.50
2023-03-03T22:03:33.367Z,18.50
2023-03-03T22:05:33.699Z,19.90
2023-03-03T22:07:34.053Z,20.50
2023-03-03T22:09:34.392Z,19.00
2023-03-03T22:11:34.732Z,20.30
2023-03-03T22:13:35.048Z,24.00
2023-03-03T22:15:35.618Z,25.90
2023-03-03T22:17:35.914Z,24.30
2023-03-03T22:19:36.211Z,24.80
2023-03-03T22:21:36.513Z,23.50
2023-03-03T22:23:38.591Z,29.10
2023-03-03T22:25:38.890Z,29.90
2023-03-03T22:27:41.082Z,32.70
2023-03-03T22:29:41.475Z,35.70
2023-03-03T22:31:41.774Z,40.00
2023-03-03T22:33:43.084Z,37.70
2023-03-03T22:35:43.507Z,38.80
2023-03-03T22:37:43.755Z,38.00
2023-03-03T22:39:44.060Z,44.90
2023-03-03T22:41:44.358Z,44.40
2023-03-03T22:43:46.760Z,42.30
2023-03-03T22:45:47.127Z,43.80
2023-03-03T22:47:48.110Z,42.70
2023-03-03T22:49:48.429Z,44.90
2023-03-03T22:51:48.819Z,47.00
2023-03-03T22:53:49.079Z,48.80
2023-03-03T22:55:49.478Z,50.30
2023-03-03T22:57:49.823Z,48.60
2023-03-03T22:59:50.106Z,52.20
2023-03-03T23:01:50.410Z,53.20
2023-03-03T23:03:51.120Z,53.20
2023-03-03T23:05:52.133Z,52.80
2023-03-03T23:07:52.475Z,53.00
2023-03-03T23:09:52.799Z,53.50
2023-03-03T23:11:53.087Z,53.60
2023-03-03T23:13:53.405Z,56.30
2023-03-03T23:15:53.771Z,57.40
2023-03-03T23:17:54.141Z,53.10
2023-03-03T23:19:54.426Z,55.70
2023-03-03T23:21:54.735Z,54.80
2023-03-03T23:23:55.060Z,56.80
2023-03-03T23:25:55.342Z,61.20
2023-03-03T23:27:55.612Z,58.70
2023-03-03T23:29:55.949Z,56.20
2023-03-03T23:31:56.277Z,60.60
2023-03-03T23:33:56.510Z,55.60
2023-03-03T23:35:56.970Z,62.10
2023-03-03T23:37:57.245Z,57.50
2023-03-03T23:40:02.469Z,56.90
2023-03-03T23:42:02.748Z,58.20
2023-03-03T23:44:03.069Z,55.10
2023-03-03T23:46:03.352Z,56.60
2023-03-03T23:48:03.739Z,55.70
2023-03-03T23:50:04.007Z,60.10
2023-03-03T23:52:04.328Z,57.90
2023-03-03T23:54:04.692Z,59.80
2023-03-03T23:56:04.992Z,58.50
2023-03-03T23:58:05.333Z,58.70
